sensor_id;sensor_type;location;lat;lon;timestamp;pressure;altitude;pressure_sealevel;temperature;humidity
55291;BME280;41155;39.768;2.712;2024-01-10T00:00:20;101607.63;;;12.13;61.86
55291;BME280;41155;39.768;2.712;2024-01-10T00:02:46;101596.00;;;12.13;61.91
55291;BME280;41155;39.768;2.712;2024-01-10T00:05:11;101601.06;;;12.09;62.19
55291;BME280;41155;39.768;2.712;2024-01-10T00:07:37;101603.41;;;12.06;62.37
55291;BME280;41155;39.768;2.712;2024-01-10T00:10:03;101596.22;;;12.11;62.34
55291;BME280;41155;39.768;2.712;2024-01-10T00:12:29;101603.63;;;12.16;62.38
55291;BME280;41155;39.768;2.712;2024-01-10T00:15:00;101588.47;;;12.03;62.85
55291;BME280;41155;39.768;2.712;2024-01-10T00:17:26;101601.28;;;12.08;64.01
55291;BME280;41155;39.768;2.712;2024-01-10T00:19:51;101597.91;;;12.01;63.38
55291;BME280;41155;39.768;2.712;2024-01-10T00:22:16;101601.19;;;12.03;64.44
55291;BME280;41155;39.768;2.712;2024-01-10T00:24:42;101606.03;;;12.01;64.61
55291;BME280;41155;39.768;2.712;2024-01-10T00:27:07;101599.31;;;11.91;65.67
55291;BME280;41155;39.768;2.712;2024-01-10T00:29:33;101594.28;;;11.83;66.14
55291;BME280;41155;39.768;2.712;2024-01-10T00:31:59;101589.78;;;11.77;65.99
55291;BME280;41155;39.768;2.712;2024-01-10T00:34:24;101599.34;;;11.68;66.88
55291;BME280;41155;39.768;2.712;2024-01-10T00:36:50;101595.00;;;11.67;67.12
55291;BME280;41155;39.768;2.712;2024-01-10T00:39:16;101602.38;;;11.60;66.72
55291;BME280;41155;39.768;2.712;2024-01-10T00:41:41;101601.00;;;11.69;66.40
55291;BME280;41155;39.768;2.712;2024-01-10T00:44:07;101592.63;;;11.70;66.31
55291;BME280;41155;39.768;2.712;2024-01-10T00:46:32;101583.34;;;11.78;66.39
55291;BME280;41155;39.768;2.712;2024-01-10T00:48:58;101585.31;;;11.71;66.58
55291;BME280;41155;39.768;2.712;2024-01-10T00:51:23;101586.75;;;11.85;66.30
55291;BME280;41155;39.768;2.712;2024-01-10T00:53:49;101586.97;;;11.84;66.16
55291;BME280;41155;39.768;2.712;2024-01-10T00:56:14;101588.50;;;11.91;66.26
55291;BME280;41155;39.768;2.712;2024-01-10T00:58:40;101580.75;;;11.83;66.10
55291;BME280;41155;39.768;2.712;2024-01-10T01:01:06;101582.59;;;11.94;65.87
55291;BME280;41155;39.768;2.712;2024-01-10T01:03:32;101577.31;;;11.99;65.50
55291;BME280;41155;39.768;2.712;2024-01-10T01:05:57;101572.81;;;12.05;65.58
55291;BME280;41155;39.768;2.712;2024-01-10T01:08:23;101575.63;;;12.10;64.80
55291;BME280;41155;39.768;2.712;2024-01-10T01:10:48;101579.63;;;12.08;64.81
55291;BME280;41155;39.768;2.712;2024-01-10T01:13:14;101568.97;;;12.01;64.67
55291;BME280;41155;39.768;2.712;2024-01-10T01:15:39;101568.44;;;12.16;64.48
55291;BME280;41155;39.768;2.712;2024-01-10T01:18:05;101559.13;;;12.12;63.83
55291;BME280;41155;39.768;2.712;2024-01-10T01:20:31;101569.47;;;12.15;63.99
55291;BME280;41155;39.768;2.712;2024-01-10T01:22:56;101572.94;;;12.10;63.82
55291;BME280;41155;39.768;2.712;2024-01-10T01:25:22;101569.28;;;12.05;64.13
55291;BME280;41155;39.768;2.712;2024-01-10T01:27:47;101570.44;;;12.09;64.06
55291;BME280;41155;39.768;2.712;2024-01-10T01:30:13;101568.47;;;12.04;63.72
55291;BME280;41155;39.768;2.712;2024-01-10T01:32:38;101576.56;;;12.16;63.61
55291;BME280;41155;39.768;2.712;2024-01-10T01:35:04;101564.38;;;12.02;63.74
55291;BME280;41155;39.768;2.712;2024-01-10T01:37:30;101581.53;;;12.07;63.40
55291;BME280;41155;39.768;2.712;2024-01-10T01:39:55;101572.66;;;12.12;63.29
55291;BME280;41155;39.768;2.712;2024-01-10T01:42:21;101579.16;;;12.11;62.98
55291;BME280;41155;39.768;2.712;2024-01-10T01:44:46;101585.66;;;12.10;62.81
55291;BME280;41155;39.768;2.712;2024-01-10T01:47:12;101582.25;;;12.03;63.29
55291;BME280;41155;39.768;2.712;2024-01-10T01:49:38;101576.13;;;12.07;63.28
55291;BME280;41155;39.768;2.712;2024-01-10T01:52:04;101575.16;;;12.13;63.24
55291;BME280;41155;39.768;2.712;2024-01-10T01:54:30;101580.94;;;12.05;63.70
55291;BME280;41155;39.768;2.712;2024-01-10T01:56:56;101565.03;;;12.09;63.42
55291;BME280;41155;39.768;2.712;2024-01-10T01:59:23;101564.00;;;12.10;63.28
55291;BME280;41155;39.768;2.712;2024-01-10T02:01:51;101557.88;;;12.03;63.61
55291;BME280;41155;39.768;2.712;2024-01-10T02:04:18;101562.72;;;12.01;63.86
55291;BME280;41155;39.768;2.712;2024-01-10T02:06:44;101558.69;;;12.03;64.29
55291;BME280;41155;39.768;2.712;2024-01-10T02:09:09;101547.06;;;12.03;63.97
55291;BME280;41155;39.768;2.712;2024-01-10T02:11:35;101540.94;;;12.07;63.98
55291;BME280;41155;39.768;2.712;2024-01-10T02:14:01;101551.13;;;12.17;63.57
55291;BME280;41155;39.768;2.712;2024-01-10T02:16:27;101550.06;;;12.18;63.39
55291;BME280;41155;39.768;2.712;2024-01-10T02:18:52;101551.00;;;12.12;63.88
55291;BME280;41155;39.768;2.712;2024-01-10T02:21:21;101542.91;;;12.12;63.68
55291;BME280;41155;39.768;2.712;2024-01-10T02:23:47;101539.47;;;12.16;63.62
55291;BME280;41155;39.768;2.712;2024-01-10T02:26:13;101539.47;;;12.16;63.41
55291;BME280;41155;39.768;2.712;2024-01-10T02:28:39;101533.72;;;12.13;63.17
55291;BME280;41155;39.768;2.712;2024-01-10T02:31:04;101529.22;;;12.18;62.70
55291;BME280;41155;39.768;2.712;2024-01-10T02:33:31;101527.25;;;12.14;62.82
55291;BME280;41155;39.768;2.712;2024-01-10T02:35:57;101530.75;;;12.14;62.11
55291;BME280;41155;39.768;2.712;2024-01-10T02:38:22;101523.56;;;12.20;61.28
55291;BME280;41155;39.768;2.712;2024-01-10T02:40:49;101526.03;;;12.21;60.99
55291;BME280;41155;39.768;2.712;2024-01-10T02:43:15;101534.59;;;12.30;60.57
55291;BME280;41155;39.768;2.712;2024-01-10T02:45:41;101522.47;;;12.33;59.75
55291;BME280;41155;39.768;2.712;2024-01-10T02:48:06;101528.19;;;12.36;59.93
55291;BME280;41155;39.768;2.712;2024-01-10T02:50:32;101499.44;;;12.18;59.49
55291;BME280;41155;39.768;2.712;2024-01-10T02:52:57;101516.56;;;12.36;59.36
55291;BME280;41155;39.768;2.712;2024-01-10T02:55:23;101516.97;;;12.44;58.92
55291;BME280;41155;39.768;2.712;2024-01-10T02:57:48;101515.69;;;12.47;58.56
55291;BME280;41155;39.768;2.712;2024-01-10T03:00:14;101499.91;;;12.44;58.25
55291;BME280;41155;39.768;2.712;2024-01-10T03:02:39;101500.47;;;12.46;58.88
55291;BME280;41155;39.768;2.712;2024-01-10T03:05:05;101506.97;;;12.45;58.36
55291;BME280;41155;39.768;2.712;2024-01-10T03:07:33;101490.72;;;12.45;58.58
55291;BME280;41155;39.768;2.712;2024-01-10T03:09:58;101491.94;;;12.54;58.67
55291;BME280;41155;39.768;2.712;2024-01-10T03:12:24;101491.13;;;12.54;58.66
55291;BME280;41155;39.768;2.712;2024-01-10T03:14:49;101498.66;;;12.52;59.08
55291;BME280;41155;39.768;2.712;2024-01-10T03:17:15;101496.03;;;12.40;59.03
55291;BME280;41155;39.768;2.712;2024-01-10T03:19:40;101499.81;;;12.39;59.71
55291;BME280;41155;39.768;2.712;2024-01-10T03:22:09;101497.09;;;12.39;59.39
55291;BME280;41155;39.768;2.712;2024-01-10T03:24:36;101496.53;;;12.37;59.14
55291;BME280;41155;39.768;2.712;2024-01-10T03:27:01;101483.06;;;12.42;58.78
55291;BME280;41155;39.768;2.712;2024-01-10T03:29:27;101485.88;;;12.47;58.79
55291;BME280;41155;39.768;2.712;2024-01-10T03:31:53;101481.03;;;12.49;58.35
55291;BME280;41155;39.768;2.712;2024-01-10T03:34:18;101468.78;;;12.47;58.49
55291;BME280;41155;39.768;2.712;2024-01-10T03:36:43;101484.53;;;12.50;58.59
55291;BME280;41155;39.768;2.712;2024-01-10T03:39:09;101488.50;;;12.59;58.25
55291;BME280;41155;39.768;2.712;2024-01-10T03:41:35;101473.69;;;12.50;58.09
55291;BME280;41155;39.768;2.712;2024-01-10T03:44:01;101483.66;;;12.61;57.91
55291;BME280;41155;39.768;2.712;2024-01-10T03:46:26;101470.75;;;12.51;58.08
55291;BME280;41155;39.768;2.712;2024-01-10T03:48:52;101478.50;;;12.59;58.05
55291;BME280;41155;39.768;2.712;2024-01-10T03:51:18;101480.94;;;12.61;58.03
55291;BME280;41155;39.768;2.712;2024-01-10T03:53:47;101469.28;;;12.60;58.46
55291;BME280;41155;39.768;2.712;2024-01-10T03:56:14;101469.28;;;12.60;58.20
55291;BME280;41155;39.768;2.712;2024-01-10T03:58:40;101475.63;;;12.66;58.22
55291;BME280;41155;39.768;2.712;2024-01-10T04:01:06;101471.50;;;12.63;58.13
55291;BME280;41155;39.768;2.712;2024-01-10T04:03:33;101471.75;;;12.62;58.76
55291;BME280;41155;39.768;2.712;2024-01-10T04:05:58;101486.22;;;12.68;58.61
55291;BME280;41155;39.768;2.712;2024-01-10T04:08:24;101476.69;;;12.65;59.14
55291;BME280;41155;39.768;2.712;2024-01-10T04:10:49;101472.91;;;12.66;59.21
55291;BME280;41155;39.768;2.712;2024-01-10T04:13:15;101474.88;;;12.54;59.64
55291;BME280;41155;39.768;2.712;2024-01-10T04:15:40;101472.25;;;12.59;59.74
55291;BME280;41155;39.768;2.712;2024-01-10T04:18:06;101474.38;;;12.57;60.08
55291;BME280;41155;39.768;2.712;2024-01-10T04:20:32;101469.53;;;12.59;60.17
55291;BME280;41155;39.768;2.712;2024-01-10T04:22:57;101466.91;;;12.47;61.00
55291;BME280;41155;39.768;2.712;2024-01-10T04:25:23;101460.75;;;12.52;61.46
55291;BME280;41155;39.768;2.712;2024-01-10T04:27:48;101446.88;;;12.31;63.05
55291;BME280;41155;39.768;2.712;2024-01-10T04:30:15;101472.13;;;12.20;64.17
55291;BME280;41155;39.768;2.712;2024-01-10T04:32:41;101456.84;;;12.14;64.27
55291;BME280;41155;39.768;2.712;2024-01-10T04:35:06;101453.56;;;12.12;64.39
55291;BME280;41155;39.768;2.712;2024-01-10T04:37:32;101460.63;;;12.13;65.44
55291;BME280;41155;39.768;2.712;2024-01-10T04:39:57;101463.13;;;12.03;65.66
55291;BME280;41155;39.768;2.712;2024-01-10T04:42:23;101459.19;;;11.93;65.64
55291;BME280;41155;39.768;2.712;2024-01-10T04:44:48;101468.56;;;12.03;65.18
55291;BME280;41155;39.768;2.712;2024-01-10T04:47:15;101450.16;;;11.88;65.51
55291;BME280;41155;39.768;2.712;2024-01-10T04:49:40;101463.97;;;12.03;65.67
55291;BME280;41155;39.768;2.712;2024-01-10T04:52:06;101465.28;;;12.01;65.82
55291;BME280;41155;39.768;2.712;2024-01-10T04:54:31;101473.88;;;11.97;65.84
55291;BME280;41155;39.768;2.712;2024-01-10T04:56:57;101467.06;;;11.95;66.44
55291;BME280;41155;39.768;2.712;2024-01-10T04:59:22;101476.34;;;11.99;66.46
55291;BME280;41155;39.768;2.712;2024-01-10T05:01:48;101477.25;;;12.05;65.83
55291;BME280;41155;39.768;2.712;2024-01-10T05:04:13;101466.59;;;11.98;65.84
55291;BME280;41155;39.768;2.712;2024-01-10T05:06:39;101469.03;;;11.99;66.88
55291;BME280;41155;39.768;2.712;2024-01-10T05:09:04;101477.84;;;12.07;66.77
55291;BME280;41155;39.768;2.712;2024-01-10T05:11:31;101473.75;;;12.04;67.04
55291;BME280;41155;39.768;2.712;2024-01-10T05:13:56;101475.28;;;12.00;66.60
55291;BME280;41155;39.768;2.712;2024-01-10T05:16:22;101474.84;;;11.91;67.45
55291;BME280;41155;39.768;2.712;2024-01-10T05:18:47;101471.63;;;11.94;67.49
55291;BME280;41155;39.768;2.712;2024-01-10T05:21:13;101469.53;;;11.96;66.74
55291;BME280;41155;39.768;2.712;2024-01-10T05:23:38;101484.91;;;12.08;66.64
55291;BME280;41155;39.768;2.712;2024-01-10T05:26:05;101487.59;;;12.08;67.33
55291;BME280;41155;39.768;2.712;2024-01-10T05:28:31;101480.44;;;12.02;67.16
55291;BME280;41155;39.768;2.712;2024-01-10T05:30:58;101495.50;;;12.09;66.77
55291;BME280;41155;39.768;2.712;2024-01-10T05:33:23;101478.47;;;11.97;66.85
55291;BME280;41155;39.768;2.712;2024-01-10T05:35:49;101493.00;;;12.08;67.49
55291;BME280;41155;39.768;2.712;2024-01-10T05:38:15;101497.94;;;12.11;67.75
55291;BME280;41155;39.768;2.712;2024-01-10T05:40:40;101499.69;;;12.17;67.45
55291;BME280;41155;39.768;2.712;2024-01-10T05:43:06;101500.38;;;12.24;68.11
55291;BME280;41155;39.768;2.712;2024-01-10T05:45:32;101494.38;;;12.22;67.81
55291;BME280;41155;39.768;2.712;2024-01-10T05:47:58;101496.06;;;12.11;68.79
55291;BME280;41155;39.768;2.712;2024-01-10T05:50:24;101491.38;;;12.07;69.09
55291;BME280;41155;39.768;2.712;2024-01-10T05:52:50;101508.59;;;12.01;70.19
55291;BME280;41155;39.768;2.712;2024-01-10T05:55:15;101513.31;;;11.93;70.40
55291;BME280;41155;39.768;2.712;2024-01-10T05:57:41;101511.19;;;11.95;70.46
55291;BME280;41155;39.768;2.712;2024-01-10T06:00:07;101509.47;;;11.89;70.86
55291;BME280;41155;39.768;2.712;2024-01-10T06:02:36;101510.50;;;11.88;70.86
55291;BME280;41155;39.768;2.712;2024-01-10T06:05:06;101499.13;;;11.74;70.69
55291;BME280;41155;39.768;2.712;2024-01-10T06:07:32;101508.28;;;11.85;70.75
55291;BME280;41155;39.768;2.712;2024-01-10T06:09:57;101521.53;;;11.98;70.69
55291;BME280;41155;39.768;2.712;2024-01-10T06:12:23;101517.09;;;11.92;70.82
55291;BME280;41155;39.768;2.712;2024-01-10T06:14:48;101517.44;;;11.84;71.23
55291;BME280;41155;39.768;2.712;2024-01-10T06:17:14;101517.44;;;11.84;71.78
55291;BME280;41155;39.768;2.712;2024-01-10T06:19:39;101521.22;;;11.83;72.13
55291;BME280;41155;39.768;2.712;2024-01-10T06:22:05;101496.97;;;11.76;72.91
55291;BME280;41155;39.768;2.712;2024-01-10T06:24:30;101523.31;;;11.81;73.44
55291;BME280;41155;39.768;2.712;2024-01-10T06:26:56;101521.81;;;11.85;73.54
55291;BME280;41155;39.768;2.712;2024-01-10T06:29:21;101524.72;;;11.84;73.68
55291;BME280;41155;39.768;2.712;2024-01-10T06:31:46;101524.63;;;11.90;73.98
55291;BME280;41155;39.768;2.712;2024-01-10T06:34:12;101522.25;;;11.94;74.50
55291;BME280;41155;39.768;2.712;2024-01-10T06:36:38;101527.44;;;11.84;75.33
55291;BME280;41155;39.768;2.712;2024-01-10T06:39:04;101532.47;;;11.80;74.43
55291;BME280;41155;39.768;2.712;2024-01-10T06:41:29;101531.66;;;11.80;73.40
55291;BME280;41155;39.768;2.712;2024-01-10T06:43:55;101532.41;;;11.75;75.64
55291;BME280;41155;39.768;2.712;2024-01-10T06:46:21;101525.47;;;11.67;76.07
55291;BME280;41155;39.768;2.712;2024-01-10T06:48:47;101522.75;;;11.67;76.54
55291;BME280;41155;39.768;2.712;2024-01-10T06:51:13;101525.28;;;11.57;77.22
55291;BME280;41155;39.768;2.712;2024-01-10T06:53:39;101523.50;;;11.39;76.55
55291;BME280;41155;39.768;2.712;2024-01-10T06:56:06;101525.72;;;11.54;76.39
55291;BME280;41155;39.768;2.712;2024-01-10T06:58:32;101535.25;;;11.57;76.96
55291;BME280;41155;39.768;2.712;2024-01-10T07:00:58;101535.84;;;11.59;77.07
55291;BME280;41155;39.768;2.712;2024-01-10T07:03:26;101544.56;;;11.49;77.39
55291;BME280;41155;39.768;2.712;2024-01-10T07:05:51;101547.13;;;11.56;76.85
55291;BME280;41155;39.768;2.712;2024-01-10T07:08:17;101551.13;;;11.41;77.08
55291;BME280;41155;39.768;2.712;2024-01-10T07:10:42;101546.91;;;11.34;77.96
55291;BME280;41155;39.768;2.712;2024-01-10T07:13:08;101545.84;;;11.46;77.27
55291;BME280;41155;39.768;2.712;2024-01-10T07:15:33;101543.16;;;11.46;77.13
55291;BME280;41155;39.768;2.712;2024-01-10T07:17:59;101546.19;;;11.50;76.22
55291;BME280;41155;39.768;2.712;2024-01-10T07:20:25;101554.28;;;11.62;76.62
55291;BME280;41155;39.768;2.712;2024-01-10T07:22:50;101544.19;;;11.45;76.54
55291;BME280;41155;39.768;2.712;2024-01-10T07:25:17;101550.91;;;11.54;76.77
55291;BME280;41155;39.768;2.712;2024-01-10T07:27:45;101553.94;;;11.58;76.74
55291;BME280;41155;39.768;2.712;2024-01-10T07:30:11;101548.91;;;11.50;77.42
55291;BME280;41155;39.768;2.712;2024-01-10T07:32:40;101545.03;;;11.46;78.37
55291;BME280;41155;39.768;2.712;2024-01-10T07:35:06;101553.25;;;11.51;77.63
55291;BME280;41155;39.768;2.712;2024-01-10T07:37:36;101553.50;;;11.49;77.90
55291;BME280;41155;39.768;2.712;2024-01-10T07:40:02;101561.13;;;11.52;77.69
55291;BME280;41155;39.768;2.712;2024-01-10T07:42:30;101563.38;;;11.56;77.27
55291;BME280;41155;39.768;2.712;2024-01-10T07:44:56;101562.88;;;11.59;77.71
55291;BME280;41155;39.768;2.712;2024-01-10T07:47:22;101569.13;;;11.47;77.07
55291;BME280;41155;39.768;2.712;2024-01-10T07:49:48;101575.81;;;11.57;76.91
55291;BME280;41155;39.768;2.712;2024-01-10T07:52:13;101575.22;;;11.66;76.56
55291;BME280;41155;39.768;2.712;2024-01-10T07:54:39;101570.63;;;11.67;76.56
55291;BME280;41155;39.768;2.712;2024-01-10T07:57:04;101573.47;;;11.60;76.76
55291;BME280;41155;39.768;2.712;2024-01-10T07:59:31;101574.16;;;11.67;76.29
55291;BME280;41155;39.768;2.712;2024-01-10T08:02:00;101579.22;;;11.64;76.16
55291;BME280;41155;39.768;2.712;2024-01-10T08:04:26;101576.28;;;11.65;76.10
55291;BME280;41155;39.768;2.712;2024-01-10T08:06:55;101579.56;;;11.67;76.19
55291;BME280;41155;39.768;2.712;2024-01-10T08:09:21;101584.31;;;11.60;76.05
55291;BME280;41155;39.768;2.712;2024-01-10T08:11:48;101588.97;;;11.65;75.51
55291;BME280;41155;39.768;2.712;2024-01-10T08:14:14;101583.81;;;11.63;76.07
55291;BME280;41155;39.768;2.712;2024-01-10T08:16:40;101583.22;;;11.73;75.46
55291;BME280;41155;39.768;2.712;2024-01-10T08:19:07;101583.56;;;11.76;75.40
55291;BME280;41155;39.768;2.712;2024-01-10T08:21:32;101576.38;;;11.70;75.38
55291;BME280;41155;39.768;2.712;2024-01-10T08:23:57;101571.72;;;11.66;75.79
55291;BME280;41155;39.768;2.712;2024-01-10T08:26:23;101579.44;;;11.74;75.91
55291;BME280;41155;39.768;2.712;2024-01-10T08:28:48;101585.78;;;11.80;75.79
55291;BME280;41155;39.768;2.712;2024-01-10T08:31:17;101584.50;;;11.70;76.32
55291;BME280;41155;39.768;2.712;2024-01-10T08:33:42;101583.69;;;11.70;75.80
55291;BME280;41155;39.768;2.712;2024-01-10T08:36:08;101574.97;;;11.68;75.83
55291;BME280;41155;39.768;2.712;2024-01-10T08:38:35;101583.44;;;11.83;75.02
55291;BME280;41155;39.768;2.712;2024-01-10T08:41:01;101592.28;;;11.90;74.81
55291;BME280;41155;39.768;2.712;2024-01-10T08:43:27;101605.19;;;12.00;73.72
55291;BME280;41155;39.768;2.712;2024-01-10T08:45:52;101614.00;;;12.07;73.13
55291;BME280;41155;39.768;2.712;2024-01-10T08:48:18;101622.59;;;12.16;72.62
55291;BME280;41155;39.768;2.712;2024-01-10T08:50:43;101615.38;;;12.21;72.43
55291;BME280;41155;39.768;2.712;2024-01-10T08:53:10;101615.84;;;12.30;72.41
55291;BME280;41155;39.768;2.712;2024-01-10T08:55:35;101616.81;;;12.24;73.20
55291;BME280;41155;39.768;2.712;2024-01-10T08:58:03;101610.47;;;12.18;72.78
55291;BME280;41155;39.768;2.712;2024-01-10T09:00:28;101609.97;;;12.21;72.79
55291;BME280;41155;39.768;2.712;2024-01-10T09:02:55;101614.09;;;12.24;72.88
55291;BME280;41155;39.768;2.712;2024-01-10T09:05:21;101620.91;;;12.15;72.75
55291;BME280;41155;39.768;2.712;2024-01-10T09:07:47;101613.38;;;12.17;72.55
55291;BME280;41155;39.768;2.712;2024-01-10T09:10:13;101616.91;;;12.17;71.97
55291;BME280;41155;39.768;2.712;2024-01-10T09:12:38;101617.53;;;12.08;72.05
55291;BME280;41155;39.768;2.712;2024-01-10T09:15:04;101605.16;;;12.12;71.96
55291;BME280;41155;39.768;2.712;2024-01-10T09:17:30;101611.75;;;12.16;70.65
55291;BME280;41155;39.768;2.712;2024-01-10T09:19:55;101617.63;;;12.25;70.40
55291;BME280;41155;39.768;2.712;2024-01-10T09:22:21;101622.69;;;12.21;71.64
55291;BME280;41155;39.768;2.712;2024-01-10T09:24:47;101619.25;;;12.26;71.08
55291;BME280;41155;39.768;2.712;2024-01-10T09:27:12;101610.97;;;12.32;71.03
55291;BME280;41155;39.768;2.712;2024-01-10T09:29:38;101607.72;;;12.30;70.90
55291;BME280;41155;39.768;2.712;2024-01-10T09:32:03;101610.41;;;12.30;71.15
55291;BME280;41155;39.768;2.712;2024-01-10T09:34:29;101600.16;;;12.32;70.54
55291;BME280;41155;39.768;2.712;2024-01-10T09:36:54;101616.16;;;12.34;70.66
55291;BME280;41155;39.768;2.712;2024-01-10T09:39:20;101601.31;;;12.36;70.50
55291;BME280;41155;39.768;2.712;2024-01-10T09:41:48;101607.19;;;12.45;70.14
55291;BME280;41155;39.768;2.712;2024-01-10T09:44:15;101601.03;;;12.50;69.06
55291;BME280;41155;39.768;2.712;2024-01-10T09:46:43;101606.91;;;12.58;66.92
55291;BME280;41155;39.768;2.712;2024-01-10T09:49:11;101610.31;;;12.82;66.62
55291;BME280;41155;39.768;2.712;2024-01-10T09:51:39;101621.72;;;13.01;65.90
55291;BME280;41155;39.768;2.712;2024-01-10T09:54:05;101602.47;;;13.31;65.47
55291;BME280;41155;39.768;2.712;2024-01-10T09:56:32;101595.22;;;13.54;64.06
55291;BME280;41155;39.768;2.712;2024-01-10T09:58:58;101598.78;;;13.60;63.77
55291;BME280;41155;39.768;2.712;2024-01-10T10:01:26;101609.44;;;13.44;63.50
55291;BME280;41155;39.768;2.712;2024-01-10T10:03:53;101607.25;;;14.02;63.27
55291;BME280;41155;39.768;2.712;2024-01-10T10:06:21;101605.72;;;15.14;59.11
55291;BME280;41155;39.768;2.712;2024-01-10T10:08:47;101604.00;;;16.71;55.00
55291;BME280;41155;39.768;2.712;2024-01-10T10:11:13;101606.25;;;17.26;52.07
55291;BME280;41155;39.768;2.712;2024-01-10T10:13:39;101600.50;;;17.48;51.80
55291;BME280;41155;39.768;2.712;2024-01-10T10:16:08;101605.91;;;17.58;51.14
55291;BME280;41155;39.768;2.712;2024-01-10T10:18:35;101600.78;;;16.80;52.19
55291;BME280;41155;39.768;2.712;2024-01-10T10:21:18;101593.13;;;16.66;52.61
55291;BME280;41155;39.768;2.712;2024-01-10T10:23:57;101589.00;;;16.54;52.61
55291;BME280;41155;39.768;2.712;2024-01-10T10:26:23;101583.72;;;16.16;51.91
55291;BME280;41155;39.768;2.712;2024-01-10T10:28:52;101572.50;;;16.02;53.57
55291;BME280;41155;39.768;2.712;2024-01-10T10:31:18;101573.63;;;16.12;53.88
55291;BME280;41155;39.768;2.712;2024-01-10T10:33:44;101565.22;;;16.28;54.19
55291;BME280;41155;39.768;2.712;2024-01-10T10:36:10;101569.56;;;16.24;54.49
55291;BME280;41155;39.768;2.712;2024-01-10T10:38:36;101583.09;;;15.99;53.76
55291;BME280;41155;39.768;2.712;2024-01-10T10:41:08;101571.44;;;16.14;53.84
55291;BME280;41155;39.768;2.712;2024-01-10T10:43:36;101561.97;;;16.37;54.54
55291;BME280;41155;39.768;2.712;2024-01-10T10:46:04;101576.06;;;16.08;53.53
55291;BME280;41155;39.768;2.712;2024-01-10T10:48:32;101567.22;;;15.75;54.70
55291;BME280;41155;39.768;2.712;2024-01-10T10:53:25;101575.97;;;15.88;55.67
55291;BME280;41155;39.768;2.712;2024-01-10T10:55:53;101565.31;;;15.71;56.52
55291;BME280;41155;39.768;2.712;2024-01-10T10:58:19;101567.31;;;15.53;56.20
55291;BME280;41155;39.768;2.712;2024-01-10T11:00:45;101556.22;;;15.18;56.68
55291;BME280;41155;39.768;2.712;2024-01-10T11:03:12;101544.22;;;15.13;56.40
55291;BME280;41155;39.768;2.712;2024-01-10T11:05:40;101539.66;;;15.24;57.25
55291;BME280;41155;39.768;2.712;2024-01-10T11:08:09;101549.16;;;15.17;58.23
55291;BME280;41155;39.768;2.712;2024-01-10T11:10:38;101534.41;;;15.07;57.67
55291;BME280;41155;39.768;2.712;2024-01-10T11:16:13;101529.88;;;15.23;56.61
55291;BME280;41155;39.768;2.712;2024-01-10T11:24:28;101526.13;;;14.60;59.70
55291;BME280;41155;39.768;2.712;2024-01-10T11:27:11;101540.56;;;14.38;59.84
55291;BME280;41155;39.768;2.712;2024-01-10T11:29:40;101534.22;;;14.28;61.04
55291;BME280;41155;39.768;2.712;2024-01-10T11:32:12;101524.09;;;14.23;61.11
55291;BME280;41155;39.768;2.712;2024-01-10T11:34:38;101513.00;;;14.24;60.37
55291;BME280;41155;39.768;2.712;2024-01-10T11:37:13;101511.00;;;14.15;61.23
55291;BME280;41155;39.768;2.712;2024-01-10T11:39:42;101500.00;;;14.05;61.17
55291;BME280;41155;39.768;2.712;2024-01-10T11:42:10;101502.88;;;13.93;61.34
55291;BME280;41155;39.768;2.712;2024-01-10T11:44:47;101500.28;;;14.03;61.23
55291;BME280;41155;39.768;2.712;2024-01-10T11:47:16;101497.50;;;13.98;61.37
55291;BME280;41155;39.768;2.712;2024-01-10T11:50:03;101494.72;;;14.15;61.07
55291;BME280;41155;39.768;2.712;2024-01-10T11:52:33;101469.94;;;14.38;60.57
55291;BME280;41155;39.768;2.712;2024-01-10T11:54:59;101484.50;;;14.54;59.92
55291;BME280;41155;39.768;2.712;2024-01-10T11:57:27;101475.97;;;14.73;58.55
55291;BME280;41155;39.768;2.712;2024-01-10T11:59:54;101470.97;;;14.97;57.07
55291;BME280;41155;39.768;2.712;2024-01-10T12:02:21;101466.28;;;15.34;56.47
55291;BME280;41155;39.768;2.712;2024-01-10T12:04:48;101469.78;;;15.82;55.92
55291;BME280;41155;39.768;2.712;2024-01-10T12:07:16;101470.09;;;16.17;54.07
55291;BME280;41155;39.768;2.712;2024-01-10T12:09:41;101460.31;;;16.57;54.35
55291;BME280;41155;39.768;2.712;2024-01-10T12:12:07;101448.59;;;16.82;52.11
55291;BME280;41155;39.768;2.712;2024-01-10T12:14:34;101458.94;;;17.00;51.66
55291;BME280;41155;39.768;2.712;2024-01-10T12:17:00;101459.19;;;17.14;50.56
55291;BME280;41155;39.768;2.712;2024-01-10T12:19:25;101453.97;;;17.17;51.08
55291;BME280;41155;39.768;2.712;2024-01-10T12:21:51;101451.25;;;17.17;50.22
55291;BME280;41155;39.768;2.712;2024-01-10T12:24:17;101449.38;;;17.13;50.55
55291;BME280;41155;39.768;2.712;2024-01-10T12:26:46;101440.88;;;17.25;51.27
55291;BME280;41155;39.768;2.712;2024-01-10T12:29:12;101440.56;;;17.31;51.37
55291;BME280;41155;39.768;2.712;2024-01-10T12:31:37;101441.44;;;17.16;50.38
55291;BME280;41155;39.768;2.712;2024-01-10T12:34:07;101434.69;;;16.93;50.25
55291;BME280;41155;39.768;2.712;2024-01-10T12:36:33;101442.31;;;16.91;50.56
55291;BME280;41155;39.768;2.712;2024-01-10T12:38:59;101423.50;;;16.85;51.26
55291;BME280;41155;39.768;2.712;2024-01-10T12:41:26;101428.09;;;17.00;52.15
55291;BME280;41155;39.768;2.712;2024-01-10T12:43:55;101432.25;;;16.87;52.85
55291;BME280;41155;39.768;2.712;2024-01-10T12:46:23;101437.44;;;16.78;52.76
55291;BME280;41155;39.768;2.712;2024-01-10T12:49:03;101428.97;;;16.69;52.75
55291;BME280;41155;39.768;2.712;2024-01-10T12:51:31;101420.78;;;16.59;53.42
55291;BME280;41155;39.768;2.712;2024-01-10T12:54:00;101435.22;;;16.65;53.69
55291;BME280;41155;39.768;2.712;2024-01-10T12:56:27;101434.16;;;16.56;53.72